createdAt,value
2022-10-24T12:49:53.024Z,86.93847656
2022-10-24T12:50:53.732Z,87.03613281
2022-10-24T12:51:54.475Z,87.13989258
2022-10-24T12:52:55.020Z,87.03613281
2022-10-24T12:53:56.290Z,86.73095703
2022-10-24T12:54:56.972Z,86.73095703
2022-10-24T12:55:57.737Z,86.8347168
2022-10-24T12:56:59.364Z,87.13989258
2022-10-24T12:58:00.103Z,87.34130859
2022-10-24T12:59:00.653Z,87.23754883
2022-10-24T13:00:01.477Z,87.13989258
2022-10-24T13:01:02.002Z,87.03613281
2022-10-24T13:02:03.786Z,86.8347168
2022-10-24T13:03:03.424Z,86.93847656
2022-10-24T13:04:04.023Z,87.13989258
2022-10-24T13:05:04.624Z,86.12670898
2022-10-24T13:06:05.243Z,85.71777344
2022-10-24T13:07:06.831Z,85.8215332
2022-10-24T13:08:07.405Z,86.02294922
2022-10-24T13:09:08.064Z,86.22436523
2022-10-24T13:10:08.605Z,86.12670898
2022-10-24T13:11:09.190Z,85.51635742
2022-10-24T13:12:10.142Z,84.91210938
2022-10-24T13:13:10.717Z,84.40551758
2022-10-24T13:14:11.343Z,84.30175781
2022-10-24T13:15:11.876Z,84.44213867
2022-10-24T13:16:12.446Z,84.74731445
2022-10-24T13:17:13.989Z,85.15014648
2022-10-24T13:18:15.589Z,85.45532227
2022-10-24T13:19:16.245Z,85.76049805
2022-10-24T13:20:17.222Z,86.02294922
2022-10-24T13:21:48.042Z,86.12670898
2022-10-24T13:22:48.878Z,86.12670898
2022-10-24T13:23:50.663Z,86.02294922
2022-10-24T13:24:51.417Z,85.92529297
2022-10-24T13:25:51.921Z,85.8215332
2022-10-24T13:26:53.053Z,85.92529297
2022-10-24T13:27:53.769Z,85.92529297
2022-10-24T13:28:54.466Z,86.12670898
2022-10-24T13:30:55.761Z,86.52954102
2022-10-24T13:31:56.409Z,86.52954102
2022-10-24T13:32:57.064Z,86.43188477
2022-10-24T13:33:57.845Z,86.328125
2022-10-24T13:34:58.746Z,86.22436523
2022-10-24T13:35:59.278Z,86.43188477
2022-10-24T13:37:00.460Z,86.52954102
2022-10-24T13:38:03.741Z,86.63330078
2022-10-24T13:39:01.859Z,86.63330078
2022-10-24T13:40:02.630Z,86.63330078
2022-10-24T13:41:03.170Z,86.73095703
2022-10-24T13:42:03.645Z,86.8347168
2022-10-24T13:43:07.731Z,86.93847656
2022-10-24T13:44:05.583Z,86.69433594
2022-10-24T13:45:06.171Z,86.52954102
2022-10-24T13:46:10.720Z,86.38916016
2022-10-24T13:47:08.010Z,86.49291992
2022-10-24T13:48:08.506Z,86.69433594
2022-10-24T13:49:09.220Z,86.79199219
2022-10-24T13:50:10.010Z,86.79199219
2022-10-24T13:51:10.692Z,86.89575195
2022-10-24T13:52:11.230Z,86.99951172
2022-10-24T13:53:12.845Z,86.89575195
2022-10-24T13:54:13.358Z,86.89575195
2022-10-24T13:55:13.955Z,86.89575195
2022-10-24T13:56:14.576Z,86.89575195
2022-10-24T13:57:15.964Z,86.79199219
2022-10-24T13:58:47.155Z,86.79199219
2022-10-24T13:59:47.816Z,86.79199219
2022-10-24T14:00:48.442Z,86.79199219
2022-10-24T14:01:49.008Z,86.79199219
2022-10-24T14:02:50.026Z,86.89575195
2022-10-24T14:03:50.072Z,86.89575195
2022-10-24T14:04:54.726Z,87.09716797
2022-10-24T14:05:51.461Z,87.09716797
2022-10-24T14:06:53.083Z,87.20092773
2022-10-24T14:07:53.700Z,87.20092773
2022-10-24T14:09:05.512Z,87.20092773
2022-10-24T14:10:56.024Z,86.69433594
2022-10-24T14:11:56.706Z,86.69433594
2022-10-24T14:12:57.309Z,86.79199219
2022-10-24T14:14:00.309Z,87.09716797
2022-10-24T14:14:58.409Z,86.99951172
2022-10-24T14:15:58.995Z,86.89575195
2022-10-24T14:17:00.659Z,86.59057617
2022-10-24T14:18:01.517Z,86.59057617
2022-10-24T14:19:02.117Z,86.49291992
2022-10-24T14:20:02.602Z,86.38916016
2022-10-24T14:21:03.141Z,86.28540039
2022-10-24T14:22:04.592Z,86.18774414
2022-10-24T14:23:05.204Z,86.18774414
2022-10-24T14:24:06.257Z,86.18774414
2022-10-24T14:25:06.830Z,86.08398438
2022-10-24T14:26:07.339Z,85.98632813
2022-10-24T14:27:08.604Z,85.77880859
2022-10-24T14:28:09.248Z,85.88256836
2022-10-24T14:29:10.167Z,86.08398438
2022-10-24T14:30:10.861Z,86.38916016
2022-10-24T14:31:11.404Z,86.49291992
2022-10-24T14:32:11.915Z,86.79199219
2022-10-24T14:33:12.595Z,86.99951172
2022-10-24T14:34:13.958Z,87.20092773
2022-10-24T14:35:14.900Z,87.20092773
2022-10-24T14:36:15.517Z,87.50610352
2022-10-24T14:37:47.601Z,87.70751953
2022-10-24T14:38:47.856Z,87.80517578
2022-10-24T14:39:48.534Z,87.90893555
2022-10-24T14:40:53.951Z,87.80517578
2022-10-24T14:41:49.831Z,87.60375977
2022-10-24T14:44:53.807Z,87.40234375
2022-10-24T14:45:52.255Z,87.20092773
2022-10-24T14:46:52.997Z,86.89575195
2022-10-24T14:47:54.324Z,86.79199219
2022-10-24T14:48:54.865Z,86.79199219
2022-10-24T14:49:55.429Z,86.59057617
2022-10-24T14:50:56.030Z,86.34643555
2022-10-24T14:51:56.602Z,85.83984375
2022-10-24T14:52:58.048Z,85.83984375
2022-10-24T14:53:58.647Z,85.83984375
2022-10-24T14:54:59.134Z,85.94360352
2022-10-24T14:55:59.814Z,85.94360352
2022-10-24T14:57:01.547Z,85.7421875
2022-10-24T14:58:03.033Z,85.7421875
2022-10-24T14:59:03.626Z,85.63842773
2022-10-24T15:00:04.801Z,85.83984375
2022-10-24T15:01:05.299Z,85.94360352
2022-10-24T15:02:05.979Z,85.7421875
2022-10-24T15:03:06.658Z,85.60180664
2022-10-24T15:04:07.268Z,85.29663086
2022-10-24T15:05:07.804Z,85.29663086
2022-10-24T15:06:08.483Z,85.09521484
2022-10-24T15:07:10.195Z,85.09521484
2022-10-24T15:08:22.059Z,84.99145508
2022-10-24T15:09:11.762Z,85.19287109
2022-10-24T15:10:13.264Z,85.39428711
2022-10-24T15:11:12.761Z,85.69946289
2022-10-24T15:12:13.802Z,85.90087891
2022-10-24T15:13:14.585Z,86.20605469
2022-10-24T15:14:15.213Z,86.34643555
2022-10-24T15:15:46.241Z,86.45019531
2022-10-24T15:16:47.508Z,86.75537109
2022-10-24T15:17:48.875Z,86.85302734
2022-10-24T15:18:49.387Z,86.85302734
2022-10-24T15:19:49.865Z,86.75537109
2022-10-24T15:20:50.709Z,86.65161133
2022-10-24T15:21:51.237Z,86.75537109
2022-10-24T15:22:52.560Z,86.75537109
2022-10-24T15:23:54.041Z,86.75537109
2022-10-24T15:24:54.559Z,86.54785156
2022-10-24T15:25:55.137Z,86.54785156
2022-10-24T15:26:55.680Z,86.45019531
2022-10-24T15:27:56.734Z,86.34643555
2022-10-24T15:28:57.324Z,86.75537109
2022-10-24T15:29:57.928Z,86.75537109
2022-10-24T15:30:58.441Z,86.85302734
2022-10-24T15:31:59.017Z,87.05444336
2022-10-24T15:32:59.531Z,86.85302734
2022-10-24T15:34:00.036Z,86.75537109
2022-10-24T15:35:00.621Z,86.75537109
2022-10-24T15:36:01.176Z,87.05444336
2022-10-24T15:37:01.736Z,87.05444336
2022-10-24T15:38:02.677Z,87.05444336
2022-10-24T15:39:03.110Z,87.15820313
2022-10-24T15:40:03.625Z,87.11547852
2022-10-24T15:41:04.410Z,87.11547852
2022-10-24T15:42:04.897Z,87.21923828
2022-10-24T15:43:06.258Z,87.21923828
2022-10-24T15:44:06.679Z,87.21923828
2022-10-24T15:45:07.125Z,87.31689453
2022-10-24T15:46:07.648Z,87.31689453
2022-10-24T15:47:08.284Z,87.31689453
2022-10-24T15:48:09.674Z,87.21923828
2022-10-24T15:49:10.145Z,87.21923828
2022-10-24T15:50:10.617Z,87.11547852
2022-10-24T15:51:11.143Z,86.75537109
2022-10-24T15:52:11.800Z,86.45019531
2022-10-24T15:53:12.997Z,86.14501953
2022-10-24T15:54:13.509Z,85.94360352
2022-10-24T15:55:14.056Z,85.94360352
2022-10-24T15:56:14.523Z,86.04736328
2022-10-24T15:57:46.016Z,86.04736328
2022-10-24T15:59:47.174Z,86.34643555
2022-10-24T16:00:47.707Z,86.34643555
2022-10-24T16:01:48.237Z,86.34643555
2022-10-24T16:02:48.712Z,86.49291992
2022-10-24T16:03:49.137Z,86.69433594
2022-10-24T16:04:49.630Z,86.79199219
2022-10-24T16:05:50.395Z,86.79199219
2022-10-24T16:06:50.968Z,86.79199219
2022-10-24T16:07:51.992Z,85.88256836
2022-10-24T16:08:52.443Z,85.57739258
2022-10-24T16:09:53.051Z,85.47973633
2022-10-24T16:10:53.524Z,85.62011719
2022-10-24T16:11:53.962Z,85.8215332
2022-10-24T16:12:55.475Z,85.62011719
2022-10-24T16:13:55.884Z,85.71777344
2022-10-24T16:14:56.340Z,85.51635742
2022-10-24T16:15:56.804Z,85.41870117
2022-10-24T16:16:57.222Z,85.31494141
2022-10-24T16:17:58.476Z,85.31494141
2022-10-24T16:18:58.896Z,85.21118164
2022-10-24T16:19:59.425Z,85.31494141
2022-10-24T16:20:59.803Z,85.21118164
2022-10-24T16:22:00.202Z,85.31494141
2022-10-24T16:23:01.309Z,85.31494141
2022-10-24T16:24:01.647Z,85.31494141
2022-10-24T16:25:02.127Z,85.11352539
2022-10-24T16:26:02.619Z,85.00976563
2022-10-24T16:27:03.080Z,85.00976563
2022-10-24T16:28:04.233Z,85.00976563
2022-10-24T16:29:05.177Z,85.21118164
2022-10-24T16:30:05.640Z,85.21118164
2022-10-24T16:31:06.132Z,85.11352539
2022-10-24T16:32:06.642Z,85.11352539
2022-10-24T16:33:07.133Z,85.31494141
2022-10-24T16:34:07.641Z,85.76049805
2022-10-24T16:35:08.106Z,85.96191406
2022-10-24T16:36:08.586Z,86.06567383
2022-10-24T16:37:09.054Z,85.96191406
2022-10-24T16:38:10.541Z,85.25390625
2022-10-24T16:39:11.179Z,85.55908203
2022-10-24T16:40:11.780Z,86.06567383
2022-10-24T16:41:12.292Z,86.30981445
2022-10-24T16:42:12.800Z,86.61499023
2022-10-24T16:43:13.293Z,86.9140625
2022-10-24T16:44:13.815Z,87.21923828
2022-10-24T16:45:44.992Z,87.18261719
2022-10-24T16:46:45.478Z,87.18261719
2022-10-24T16:47:45.957Z,87.07885742
2022-10-24T16:48:47.301Z,86.97509766
2022-10-24T16:49:47.806Z,86.97509766
2022-10-24T16:50:48.264Z,86.97509766
2022-10-24T16:51:48.704Z,86.87744141
2022-10-24T16:52:49.262Z,86.77368164
2022-10-24T16:53:50.506Z,86.67602539
2022-10-24T16:54:51.048Z,86.57226563
2022-10-24T16:55:51.532Z,86.77368164
2022-10-24T16:56:53.851Z,86.67602539
2022-10-24T16:57:52.445Z,86.87744141
2022-10-24T16:58:53.722Z,86.87744141
2022-10-24T16:59:54.145Z,86.87744141
2022-10-24T17:00:54.663Z,86.97509766
2022-10-24T17:01:55.187Z,87.07885742
2022-10-24T17:02:55.500Z,87.18261719
2022-10-24T17:03:56.763Z,87.42675781
2022-10-24T17:04:57.330Z,87.52441406
2022-10-24T17:05:57.975Z,87.72583008
2022-10-24T17:06:58.582Z,87.72583008
2022-10-24T17:08:00.220Z,87.82958984
2022-10-24T17:09:00.892Z,87.93334961
2022-10-24T17:10:01.532Z,88.03100586
2022-10-24T17:11:02.773Z,88.13476563
2022-10-24T17:12:03.266Z,88.23242188
2022-10-24T17:13:03.733Z,88.23242188
2022-10-24T17:14:04.477Z,88.13476563
2022-10-24T17:15:04.849Z,87.93334961
2022-10-24T17:16:05.308Z,88.03100586
2022-10-24T17:17:05.792Z,88.23242188
2022-10-24T17:18:06.154Z,88.53759766
2022-10-24T17:19:15.724Z,88.74511719
2022-10-24T17:20:07.364Z,88.9465332
2022-10-24T17:21:07.842Z,88.74511719
2022-10-24T17:22:08.270Z,88.74511719
2022-10-24T17:23:08.773Z,88.74511719
2022-10-24T17:24:09.206Z,88.9465332
2022-10-24T17:25:09.647Z,89.04418945
2022-10-24T17:26:10.248Z,89.19067383
2022-10-24T17:27:10.806Z,89.19067383
2022-10-24T17:28:11.999Z,88.98925781
2022-10-24T17:29:12.721Z,88.88549805
2022-10-24T17:30:13.266Z,88.98925781
2022-10-24T17:31:44.481Z,89.08691406
2022-10-24T17:32:45.275Z,89.08691406
2022-10-24T17:33:45.647Z,89.19067383
2022-10-24T17:34:46.107Z,89.19067383
2022-10-24T17:35:46.551Z,89.19067383
2022-10-24T17:36:46.991Z,89.19067383
2022-10-24T17:37:47.431Z,88.9465332
2022-10-24T17:38:48.701Z,88.78173828
2022-10-24T17:39:49.193Z,88.88549805
2022-10-24T17:40:49.769Z,88.88549805
2022-10-24T17:41:50.523Z,88.88549805
2022-10-24T17:42:50.936Z,88.68408203
2022-10-24T17:43:51.362Z,88.58032227
2022-10-24T17:44:51.802Z,88.58032227
2022-10-24T17:45:52.283Z,88.37890625
2022-10-24T17:46:55.969Z,88.07373047
2022-10-24T17:47:53.244Z,88.07373047
2022-10-24T17:48:54.207Z,88.07373047
2022-10-24T17:49:54.736Z,87.9699707
2022-10-24T17:50:55.078Z,87.67089844
2022-10-24T17:51:55.522Z,87.67089844
2022-10-24T17:52:56.702Z,87.67089844
2022-10-24T17:53:57.987Z,87.76855469
2022-10-24T17:54:58.482Z,87.9699707
2022-10-24T17:55:59.076Z,88.17749023
2022-10-24T17:56:59.535Z,88.27514648
2022-10-24T17:58:00.255Z,88.37890625
2022-10-24T17:59:01.714Z,88.48266602
2022-10-24T18:00:02.307Z,88.58032227
2022-10-24T18:01:02.969Z,88.48266602
2022-10-24T18:02:03.419Z,88.27514648
2022-10-24T18:03:03.836Z,88.17749023
2022-10-24T18:04:04.240Z,88.27514648
2022-10-24T18:05:04.663Z,88.37890625
2022-10-24T18:06:05.135Z,88.72680664
2022-10-24T18:07:05.570Z,88.92822266
2022-10-24T18:08:06.098Z,89.02587891
2022-10-24T18:09:07.247Z,89.12963867
2022-10-24T18:10:07.720Z,89.33105469
2022-10-24T18:11:08.298Z,89.33105469
2022-10-24T18:12:08.795Z,89.23339844
2022-10-24T18:13:09.344Z,89.23339844
2022-10-24T18:14:09.812Z,89.23339844
2022-10-24T18:15:10.329Z,89.23339844
2022-10-24T18:16:10.785Z,89.23339844
2022-10-24T18:17:11.319Z,89.23339844
2022-10-24T18:18:12.475Z,89.19067383
2022-10-24T18:19:13.978Z,89.12963867
2022-10-24T18:20:44.731Z,89.33105469
2022-10-24T18:21:45.225Z,89.43481445
2022-10-24T18:22:46.170Z,89.43481445
2022-10-24T18:23:46.268Z,89.43481445
2022-10-24T18:24:46.721Z,89.53857422
2022-10-24T18:25:47.241Z,89.63623047
2022-10-24T18:26:47.702Z,89.73999023
2022-10-24T18:27:48.203Z,89.84375
2022-10-24T18:28:49.485Z,89.84375
2022-10-24T18:29:49.909Z,89.84375
2022-10-24T18:30:50.557Z,89.73999023
2022-10-24T18:31:50.995Z,89.53857422
2022-10-24T18:32:51.471Z,89.43481445
2022-10-24T18:33:52.525Z,89.53857422
2022-10-24T18:34:52.972Z,89.63623047
2022-10-24T18:35:53.446Z,89.73999023
2022-10-24T18:36:53.932Z,89.84375
2022-10-24T18:37:54.359Z,89.84375
2022-10-24T18:38:54.800Z,89.84375
2022-10-24T18:39:55.305Z,89.63623047
2022-10-24T18:40:55.932Z,89.33105469
2022-10-24T18:41:57.338Z,89.33105469
2022-10-24T18:42:57.882Z,89.33105469
2022-10-24T18:43:58.411Z,89.33105469
2022-10-24T18:44:58.888Z,89.02587891
2022-10-24T18:45:59.404Z,88.92822266
2022-10-24T18:46:59.817Z,88.92822266
2022-10-24T18:48:00.272Z,88.92822266
2022-10-24T18:49:00.803Z,88.78173828
2022-10-24T18:50:02.003Z,88.48266602
2022-10-24T18:51:02.435Z,88.37890625
2022-10-24T18:52:02.906Z,88.42163086
2022-10-24T18:53:03.312Z,88.51928711
2022-10-24T18:54:03.766Z,88.82446289
2022-10-24T18:55:05.275Z,89.02587891
2022-10-24T18:56:05.941Z,88.82446289
2022-10-24T18:57:06.746Z,88.82446289
2022-10-24T18:58:07.387Z,88.72680664
2022-10-24T18:59:08.507Z,88.51928711
2022-10-24T19:00:08.991Z,88.51928711
2022-10-24T19:01:09.765Z,88.62304688
2022-10-24T19:02:10.579Z,88.62304688
2022-10-24T19:03:11.046Z,88.45825195
2022-10-24T19:04:12.493Z,88.3605957
2022-10-24T19:05:43.287Z,88.56201172
2022-10-24T19:06:44.086Z,88.8671875
2022-10-24T19:07:45.076Z,88.3605957
2022-10-24T19:08:46.000Z,87.95166016
2022-10-24T19:09:46.466Z,87.64648438
2022-10-24T19:10:46.966Z,87.85400391
2022-10-24T19:11:47.663Z,87.34130859
2022-10-24T19:12:48.630Z,87.04223633
2022-10-24T19:13:49.196Z,86.63330078
2022-10-24T19:14:49.733Z,86.8347168
2022-10-24T19:15:50.616Z,86.8347168
2022-10-24T19:16:51.147Z,87.13989258
2022-10-24T19:17:51.843Z,88.25683594
2022-10-24T19:18:53.059Z,87.75024414
2022-10-24T19:19:53.532Z,86.12670898
2022-10-24T19:20:53.958Z,85.8581543
2022-10-24T19:21:54.422Z,85.8581543
2022-10-24T19:22:54.980Z,85.96191406
2022-10-24T19:23:55.496Z,86.06567383
2022-10-24T19:24:56.727Z,86.16333008
2022-10-24T19:25:57.241Z,86.57226563
2022-10-24T19:26:57.822Z,86.92016602
2022-10-24T19:27:58.474Z,87.42675781
2022-10-24T19:29:02.341Z,87.62817383
2022-10-24T19:30:00.589Z,87.83569336
2022-10-24T19:31:01.159Z,88.03710938
2022-10-24T19:32:01.643Z,87.83569336
2022-10-24T19:33:02.279Z,87.73193359
2022-10-24T19:34:02.912Z,87.73193359
2022-10-24T19:35:03.542Z,87.93334961
2022-10-24T19:36:04.140Z,87.93334961
2022-10-24T19:37:04.634Z,87.79296875
2022-10-24T19:38:05.233Z,87.48779297
2022-10-24T19:39:06.525Z,87.18261719
2022-10-24T19:40:07.096Z,87.07885742
2022-10-24T19:41:07.739Z,87.07885742
2022-10-24T19:42:08.259Z,86.98120117
2022-10-24T19:43:09.242Z,86.98120117
2022-10-24T19:44:09.687Z,86.87744141
2022-10-24T19:45:10.450Z,86.87744141
2022-10-24T19:46:19.896Z,86.87744141
2022-10-24T19:47:11.636Z,86.67602539
2022-10-24T19:48:42.784Z,86.16333008
2022-10-24T19:49:44.280Z,86.06567383
2022-10-24T19:50:44.854Z,86.06567383
2022-10-24T19:51:45.548Z,85.8581543
2022-10-24T19:52:46.080Z,85.8581543
2022-10-24T19:53:46.672Z,85.96191406
2022-10-24T19:54:48.017Z,85.76049805
2022-10-24T19:55:48.583Z,85.45532227
2022-10-24T19:56:49.071Z,85.45532227
2022-10-24T19:57:49.721Z,85.45532227
2022-10-24T19:58:51.033Z,85.65673828
2022-10-24T19:59:51.469Z,85.65673828
2022-10-24T20:00:52.948Z,85.3515625
2022-10-24T20:01:53.615Z,85.25390625
2022-10-24T20:02:53.907Z,85.04638672
2022-10-24T20:03:54.405Z,84.8815918
2022-10-24T20:04:54.880Z,84.78393555
2022-10-24T20:05:55.360Z,84.78393555
2022-10-24T20:06:55.995Z,84.68017578
2022-10-24T20:07:56.599Z,84.58251953
2022-10-24T20:08:57.138Z,84.68017578
2022-10-24T20:09:58.210Z,84.78393555
2022-10-24T20:10:58.683Z,84.47875977
2022-10-24T20:11:59.217Z,84.58251953
2022-10-24T20:12:59.752Z,84.375
2022-10-24T20:14:00.318Z,84.58251953
2022-10-24T20:15:00.937Z,84.68017578
2022-10-24T20:16:01.409Z,84.375
2022-10-24T20:17:01.922Z,84.17358398
2022-10-24T20:18:02.523Z,84.17358398
2022-10-24T20:19:03.269Z,84.27734375
2022-10-24T20:20:04.772Z,84.375
2022-10-24T20:21:05.384Z,84.47875977
2022-10-24T20:22:06.046Z,84.58251953
2022-10-24T20:23:06.722Z,84.58251953
2022-10-24T20:24:07.337Z,84.58251953
2022-10-24T20:25:07.913Z,84.68017578
2022-10-24T20:26:08.402Z,84.68017578
2022-10-24T20:27:08.941Z,84.61914063
2022-10-24T20:28:09.403Z,84.72290039
2022-10-24T20:29:10.039Z,84.61914063
2022-10-24T20:30:11.746Z,84.61914063
2022-10-24T20:31:42.470Z,84.72290039
2022-10-24T20:32:43.049Z,84.41772461
2022-10-24T20:33:43.491Z,84.41772461
2022-10-24T20:34:44.036Z,84.51538086
2022-10-24T20:35:44.506Z,84.41772461
2022-10-24T20:36:45.033Z,84.41772461
2022-10-24T20:37:45.917Z,84.51538086
2022-10-24T20:38:47.003Z,84.61914063
2022-10-24T20:39:48.597Z,84.51538086
2022-10-24T20:40:49.148Z,84.41772461
2022-10-24T20:41:53.231Z,84.11254883
2022-10-24T20:42:50.507Z,84.00878906
2022-10-24T20:43:51.038Z,84.00878906
2022-10-24T20:44:51.585Z,84.11254883
2022-10-24T20:45:52.095Z,84.00878906
2022-10-24T20:46:52.776Z,84.00878906
2022-10-24T20:47:53.331Z,83.9050293
2022-10-24T20:48:54.519Z,83.80737305
2022-10-24T20:49:55.070Z,83.9050293
2022-10-24T20:50:56.315Z,83.9050293
2022-10-24T20:51:57.033Z,84.11254883
2022-10-24T20:52:57.632Z,84.11254883
2022-10-24T20:53:58.157Z,84.00878906
2022-10-24T20:54:59.496Z,83.70361328
2022-10-24T20:55:59.988Z,83.84399414
2022-10-24T20:57:00.515Z,84.04541016
2022-10-24T20:58:01.018Z,84.04541016
2022-10-24T20:59:01.576Z,84.04541016
2022-10-24T21:00:02.790Z,84.14916992
2022-10-24T21:01:03.346Z,84.25292969
2022-10-24T21:02:03.971Z,84.4543457
2022-10-24T21:03:04.245Z,84.66186523
2022-10-24T21:04:04.875Z,84.66186523
2022-10-24T21:05:05.273Z,84.61914063
2022-10-24T21:06:05.730Z,84.51538086
2022-10-24T21:07:06.344Z,84.41772461
2022-10-24T21:08:06.950Z,84.00878906
2022-10-24T21:09:07.359Z,84.11254883
2022-10-24T21:10:08.750Z,84.00878906
2022-10-24T21:11:09.170Z,83.80737305
2022-10-24T21:12:09.648Z,83.80737305
2022-10-24T21:13:10.164Z,83.59985352
2022-10-24T21:14:10.695Z,83.80737305
2022-10-24T21:15:41.569Z,83.80737305
2022-10-24T21:16:42.018Z,83.70361328
2022-10-24T21:17:42.553Z,83.84399414
2022-10-24T21:18:43.050Z,83.94775391
2022-10-24T21:19:44.574Z,83.64257813
2022-10-24T21:20:45.035Z,83.84399414
2022-10-24T21:21:45.527Z,83.84399414
2022-10-24T21:22:46.023Z,83.84399414
2022-10-24T21:23:46.490Z,83.64257813
2022-10-24T21:24:47.627Z,83.64257813
2022-10-24T21:25:48.080Z,83.64257813
2022-10-24T21:26:48.515Z,83.53881836
2022-10-24T21:27:49.201Z,83.74023438
2022-10-24T21:28:49.497Z,83.53881836
2022-10-24T21:29:50.733Z,83.43505859
2022-10-24T21:30:52.022Z,83.43505859
2022-10-24T21:31:52.449Z,83.64257813
2022-10-24T21:32:52.991Z,83.74023438
2022-10-24T21:33:53.566Z,83.84399414
2022-10-24T21:34:53.998Z,83.94775391
2022-10-24T21:35:54.509Z,83.74023438
2022-10-24T21:36:54.955Z,83.74023438
2022-10-24T21:37:55.420Z,83.64257813
2022-10-24T21:38:56.502Z,83.64257813
2022-10-24T21:39:57.537Z,83.43505859
2022-10-24T21:40:58.040Z,83.53881836
2022-10-24T21:41:58.514Z,83.74023438
2022-10-24T21:42:58.947Z,83.84399414
2022-10-24T21:43:59.387Z,83.94775391
2022-10-24T21:44:59.861Z,83.84399414
2022-10-24T21:46:00.383Z,83.43505859
2022-10-24T21:47:00.888Z,83.33740234
2022-10-24T21:48:01.346Z,83.33740234
2022-10-24T21:49:01.784Z,83.23364258
2022-10-24T21:50:03.059Z,83.23364258
2022-10-24T21:51:03.557Z,83.33740234
2022-10-24T21:52:04.054Z,83.33740234
2022-10-24T21:53:04.528Z,83.23364258
2022-10-24T21:54:04.985Z,83.23364258
2022-10-24T21:55:06.052Z,83.23364258
2022-10-24T21:56:06.563Z,83.23364258
2022-10-24T21:57:07.080Z,83.03222656
2022-10-24T21:58:07.513Z,83.12988281
2022-10-24T21:59:07.972Z,83.23364258
2022-10-24T22:00:09.023Z,83.33740234
2022-10-24T22:01:09.540Z,83.37402344
2022-10-24T22:02:10.067Z,83.43505859
2022-10-24T22:03:40.938Z,83.58154297
2022-10-24T22:04:42.227Z,83.67919922
2022-10-24T22:05:42.673Z,83.58154297
2022-10-24T22:06:43.195Z,83.67919922
2022-10-24T22:07:46.181Z,83.78295898
2022-10-24T22:08:44.154Z,83.88671875
2022-10-24T22:09:44.661Z,84.04541016
2022-10-24T22:10:45.768Z,84.04541016
2022-10-24T22:11:46.262Z,83.64257813
2022-10-24T22:12:46.802Z,83.03222656
2022-10-24T22:13:47.309Z,82.62329102
2022-10-24T22:14:47.804Z,82.62329102
2022-10-24T22:15:48.298Z,82.62329102
2022-10-24T22:16:48.749Z,82.56225586
2022-10-24T22:17:49.327Z,82.76367188
2022-10-24T22:18:49.778Z,82.96508789
2022-10-24T22:19:50.477Z,83.27026367
2022-10-24T22:20:51.742Z,83.37402344
2022-10-24T22:21:52.165Z,83.4777832
2022-10-24T22:22:52.633Z,83.37402344
2022-10-24T22:23:53.221Z,82.86743164
2022-10-24T22:24:53.640Z,82.65991211
2022-10-24T22:25:54.265Z,82.76367188
2022-10-24T22:26:54.694Z,82.96508789
2022-10-24T22:27:55.116Z,83.4777832
2022-10-24T22:28:55.534Z,83.58154297
2022-10-24T22:29:56.053Z,83.67919922
2022-10-24T22:30:57.274Z,83.92333984
2022-10-24T22:31:57.757Z,84.42993164
2022-10-24T22:32:58.183Z,84.42993164
2022-10-24T22:33:58.603Z,84.74121094
2022-10-24T22:34:59.107Z,84.94262695
2022-10-24T22:35:59.659Z,85.3515625
2022-10-24T22:37:00.152Z,85.55297852
2022-10-24T22:38:00.602Z,85.55297852
2022-10-24T22:39:01.084Z,85.75439453
2022-10-24T22:40:01.629Z,86.05957031
2022-10-24T22:41:02.783Z,85.96191406
2022-10-24T22:42:03.372Z,86.26708984
2022-10-24T22:43:03.934Z,86.16333008
2022-10-24T22:44:04.405Z,86.05957031
2022-10-24T22:45:04.858Z,86.16333008
2022-10-24T22:46:05.373Z,86.16333008
2022-10-24T22:47:05.855Z,86.16333008
2022-10-24T22:48:06.477Z,86.05957031
2022-10-24T22:49:07.002Z,85.96191406
2022-10-24T22:50:08.034Z,85.65673828
2022-10-24T22:51:08.718Z,85.55297852
2022-10-24T22:52:09.295Z,85.3515625
2022-10-24T22:53:40.412Z,85.30883789
2022-10-24T22:54:41.738Z,85.20507813
2022-10-24T22:55:42.217Z,84.80224609
2022-10-24T22:56:42.812Z,84.69848633
2022-10-24T22:57:43.316Z,84.80224609
2022-10-24T22:58:43.734Z,84.59472656
2022-10-24T22:59:44.189Z,84.69848633
2022-10-24T23:00:45.252Z,84.59472656
2022-10-24T23:01:45.766Z,84.49707031
2022-10-24T23:02:46.685Z,84.28955078
2022-10-24T23:03:46.665Z,84.19189453
2022-10-24T23:04:47.752Z,84.19189453
2022-10-24T23:05:48.320Z,84.08813477
2022-10-24T23:06:48.704Z,83.78295898
2022-10-24T23:07:49.458Z,83.88671875
2022-10-24T23:08:49.675Z,83.984375
2022-10-24T23:09:50.545Z,83.88671875
2022-10-24T23:10:51.781Z,83.88671875
2022-10-24T23:11:52.279Z,83.88671875
2022-10-24T23:12:52.696Z,83.78295898
2022-10-24T23:13:53.191Z,83.88671875
2022-10-24T23:14:53.810Z,83.88671875
2022-10-24T23:15:54.355Z,83.88671875
2022-10-24T23:16:54.918Z,83.88671875
2022-10-24T23:17:55.438Z,84.08813477
2022-10-24T23:18:56.741Z,83.88671875
2022-10-24T23:19:57.248Z,83.88671875
2022-10-24T23:20:58.294Z,83.78295898
2022-10-24T23:21:58.765Z,83.78295898
2022-10-24T23:23:09.470Z,83.88671875
2022-10-24T23:23:59.668Z,83.78295898
2022-10-24T23:25:00.167Z,83.88671875
2022-10-24T23:26:01.507Z,83.88671875
2022-10-24T23:27:01.994Z,83.78295898
2022-10-24T23:28:02.474Z,83.67919922
2022-10-24T23:29:02.873Z,83.4777832
2022-10-24T23:30:03.400Z,83.58154297
2022-10-24T23:31:04.768Z,83.67919922
2022-10-24T23:32:05.251Z,83.72192383
2022-10-24T23:33:05.704Z,83.78295898
2022-10-24T23:34:06.118Z,83.78295898
2022-10-24T23:35:06.722Z,83.58154297
2022-10-24T23:36:07.213Z,83.37402344
2022-10-24T23:37:07.735Z,83.27026367
2022-10-24T23:38:08.241Z,83.37402344
2022-10-24T23:39:08.743Z,83.37402344
2022-10-24T23:40:40.533Z,83.27026367
2022-10-24T23:41:41.109Z,83.27026367
2022-10-24T23:42:41.565Z,83.27026367
2022-10-24T23:43:42.119Z,83.17260742
2022-10-24T23:44:42.548Z,83.27026367
2022-10-24T23:45:42.978Z,83.4777832
2022-10-24T23:46:43.485Z,83.37402344
2022-10-24T23:47:44.003Z,83.17260742
2022-10-24T23:48:44.457Z,83.17260742
2022-10-24T23:49:44.890Z,82.86743164
2022-10-24T23:50:45.334Z,82.96508789
2022-10-24T23:51:45.778Z,83.06884766
2022-10-24T23:52:46.798Z,83.17260742
2022-10-24T23:53:46.933Z,83.27026367
2022-10-24T23:54:47.397Z,83.37402344
2022-10-24T23:55:48.800Z,83.27026367
2022-10-24T23:56:49.207Z,83.27026367
2022-10-24T23:57:49.645Z,83.17260742
2022-10-24T23:58:50.483Z,83.31298828